Time;durP1;ratioP1;P1;durP2;ratioP2;P2;SDS_P1;SDS_P2;PMS_P1;PMS_P2;Temp;Humidity;BMP_temperature;BMP_pressure;BME280_temperature;BME280_humidity;BME280_pressure;Samples;Min_cycle;Max_cycle;Signal;HPM_P1;HPM_P2
2022/05/20 00:01:10;;;;;;;3.28;1.92;;;;;;;18.97;93.27;96916.78;5045633;28;20206;-85
2022/05/20 00:03:38;;;;;;;3.38;2.00;;;;;;;18.95;90.77;96913.53;5038130;28;20215;-86
2022/05/20 00:06:06;;;;;;;2.22;1.92;;;;;;;18.99;94.10;96916.53;5022365;28;20225;-86
2022/05/20 00:08:34;;;;;;;2.33;1.75;;;;;;;18.96;96.89;96917.91;5022178;28;20361;-85
2022/05/20 00:11:01;;;;;;;3.80;1.80;;;;;;;18.88;95.75;96919.22;5023596;28;20216;-86
2022/05/20 00:13:29;;;;;;;2.85;1.50;;;;;;;18.75;96.20;96908.81;5019983;28;20202;-86
2022/05/20 00:15:58;;;;;;;4.18;1.85;;;;;;;18.64;95.43;96907.13;5028242;28;20222;-85
2022/05/20 00:18:25;;;;;;;2.97;2.10;;;;;;;18.56;96.56;96904.88;5045933;28;20203;-86
2022/05/20 00:20:52;;;;;;;2.50;1.83;;;;;;;18.55;97.70;96914.16;5024788;28;20211;-86
2022/05/20 00:23:20;;;;;;;2.85;2.28;;;;;;;18.46;98.61;96913.03;5021623;28;20204;-86
2022/05/20 00:25:47;;;;;;;3.27;2.00;;;;;;;18.32;99.49;96906.41;5039924;28;20225;-86
2022/05/20 00:28:16;;;;;;;2.67;1.80;;;;;;;18.32;100.00;96909.13;5040784;28;20227;-85
2022/05/20 00:30:43;;;;;;;3.15;1.80;;;;;;;18.28;100.00;96913.50;5035195;28;20210;-85
2022/05/20 00:33:13;;;;;;;3.10;2.00;;;;;;;18.25;100.00;96914.84;5026899;28;20217;-85
2022/05/20 00:35:40;;;;;;;2.40;2.20;;;;;;;18.19;100.00;96910.44;5019962;28;20219;-86
2022/05/20 00:38:07;;;;;;;3.60;2.20;;;;;;;18.24;100.00;96912.38;5024966;28;20214;-86
2022/05/20 00:40:35;;;;;;;4.00;1.93;;;;;;;18.22;100.00;96903.59;5026099;28;20280;-85
2022/05/20 00:43:10;;;;;;;2.37;2.13;;;;;;;18.12;100.00;96912.56;5027009;28;20218;-85
2022/05/20 00:45:39;;;;;;;3.77;1.97;;;;;;;18.10;100.00;96912.84;5032208;28;20214;-84
2022/05/20 00:48:07;;;;;;;2.23;1.90;;;;;;;18.11;100.00;96925.44;5043899;28;20294;-86
2022/05/20 00:50:39;;;;;;;1.70;1.60;;;;;;;18.03;100.00;96916.91;5050292;28;20213;-86
2022/05/20 00:53:08;;;;;;;2.43;1.80;;;;;;;18.05;100.00;96925.66;5039006;28;20317;-87
2022/05/20 00:55:35;;;;;;;3.60;2.10;;;;;;;18.01;100.00;96933.56;5045022;28;20226;-86
2022/05/20 00:58:07;;;;;;;3.47;1.97;;;;;;;18.00;100.00;96929.19;5020570;28;20211;-85
2022/05/20 01:00:40;;;;;;;5.27;2.23;;;;;;;18.00;100.00;96929.19;5045652;28;20293;-86
2022/05/20 01:03:12;;;;;;;4.70;2.60;;;;;;;17.93;100.00;96927.78;5026710;28;20250;-85
2022/05/20 01:05:44;;;;;;;3.93;2.60;;;;;;;17.81;100.00;96919.75;5025441;28;20214;-86
2022/05/20 01:08:15;;;;;;;2.43;2.13;;;;;;;17.79;100.00;96927.38;5019993;28;20511;-85
2022/05/20 01:10:42;;;;;;;4.47;2.27;;;;;;;17.80;100.00;96929.03;5031064;28;20210;-86
2022/05/20 01:13:11;;;;;;;6.47;2.57;;;;;;;17.74;100.00;96919.16;5040485;28;20202;-87
2022/05/20 01:15:38;;;;;;;5.67;2.30;;;;;;;17.73;100.00;96925.69;5038097;28;20238;-86
2022/05/20 01:18:06;;;;;;;5.03;2.40;;;;;;;17.73;100.00;96929.25;5028376;28;20340;-86
2022/05/20 01:20:38;;;;;;;4.20;2.07;;;;;;;17.70;100.00;96928.94;5039759;28;20215;-86
2022/05/20 01:23:10;;;;;;;3.17;2.20;;;;;;;17.68;100.00;96925.69;5041103;28;20234;-87
2022/05/20 01:25:41;;;;;;;2.37;2.17;;;;;;;17.65;100.00;96916.09;5049973;28;20198;-86
2022/05/20 01:28:08;;;;;;;7.67;2.00;;;;;;;17.69;100.00;96930.06;5036384;28;20203;-85
2022/05/20 01:30:36;;;;;;;3.50;2.03;;;;;;;17.73;100.00;96929.25;5024045;28;20203;-85
2022/05/20 01:33:06;;;;;;;7.80;2.63;;;;;;;17.66;100.00;96925.94;5039296;28;20203;-85
2022/05/20 01:35:38;;;;;;;9.17;2.40;;;;;;;17.70;100.00;96928.94;5039053;28;20303;-85
2022/05/20 01:38:06;;;;;;;4.13;2.30;;;;;;;17.67;100.00;96919.38;5021457;28;20218;-86
2022/05/20 01:40:43;;;;;;;4.30;2.27;;;;;;;17.58;100.00;96917.38;5024898;28;20236;-86
2022/05/20 01:43:18;;;;;;;3.67;2.00;;;;;;;17.53;100.00;96918.13;5038584;28;20207;-85
2022/05/20 01:45:52;;;;;;;6.40;2.40;;;;;;;17.45;100.00;96921.34;5029044;28;20213;-86
2022/05/20 01:48:27;;;;;;;4.60;2.27;;;;;;;17.48;100.00;96914.53;5021246;28;20233;-85
2022/05/20 01:50:56;;;;;;;3.00;2.33;;;;;;;17.42;100.00;96926.50;5027034;28;20274;-86
2022/05/20 01:53:30;;;;;;;3.20;2.50;;;;;;;17.35;100.00;96919.34;5042024;28;20211;-86
2022/05/20 01:56:06;;;;;;;3.70;2.20;;;;;;;17.30;100.00;96918.47;5024220;28;20211;-85
2022/05/20 01:58:40;;;;;;;3.33;2.60;;;;;;;17.30;100.00;96922.03;5020686;28;20207;-86
2022/05/20 02:01:13;;;;;;;3.90;2.30;;;;;;;17.29;100.00;96914.94;5038989;28;20213;-85
2022/05/20 02:03:46;;;;;;;4.33;2.30;;;;;;;17.30;100.00;96910.28;5015851;28;20302;-87
2022/05/20 02:06:20;;;;;;;2.83;2.00;;;;;;;17.33;100.00;96913.34;5040347;28;20222;-84
2022/05/20 02:08:52;;;;;;;2.73;2.10;;;;;;;17.35;100.00;96913.09;5036286;28;20219;-86
2022/05/20 02:11:25;;;;;;;3.83;2.17;;;;;;;17.37;100.00;96917.19;5045113;28;20288;-85
2022/05/20 02:13:57;;;;;;;2.83;2.40;;;;;;;17.29;100.00;96898.53;5040308;28;20229;-85
2022/05/20 02:16:31;;;;;;;6.37;2.77;;;;;;;17.20;100.00;96891.09;5041765;28;20218;-85
2022/05/20 02:19:05;;;;;;;6.53;2.80;;;;;;;17.11;100.00;96882.53;5033038;28;20206;-86
2022/05/20 02:21:36;;;;;;;2.77;2.20;;;;;;;17.15;100.00;96891.88;5036659;28;20310;-85
2022/05/20 02:24:08;;;;;;;2.17;1.93;;;;;;;17.12;100.00;96886.94;5021166;28;20295;-85
2022/05/20 02:26:44;;;;;;;6.13;2.80;;;;;;;17.10;100.00;96880.09;5022488;28;20211;-85
2022/05/20 02:29:15;;;;;;;3.70;1.90;;;;;;;17.05;100.00;96880.84;5028966;28;20242;-86
2022/05/20 02:31:49;;;;;;;4.13;2.33;;;;;;;17.11;100.00;96882.53;5037620;28;20231;-86
2022/05/20 02:34:16;;;;;;;4.03;2.10;;;;;;;17.29;98.78;96875.88;5017343;28;20199;-85
2022/05/20 02:36:43;;;;;;;2.80;1.77;;;;;;;17.33;95.39;96885.22;5029996;28;20238;-86
2022/05/20 02:39:16;;;;;;;4.77;2.30;;;;;;;17.43;94.38;96870.84;5040923;28;20306;-85
2022/05/20 02:41:46;;;;;;;4.20;2.10;;;;;;;17.52;92.49;96869.28;5033868;28;20260;-85
2022/05/20 02:44:14;;;;;;;3.37;1.77;;;;;;;17.61;91.77;96864.94;5019388;28;20210;-85
2022/05/20 02:46:43;;;;;;;3.67;2.20;;;;;;;17.62;90.94;96863.88;5022598;28;20210;-85
2022/05/20 02:49:10;;;;;;;2.57;1.83;;;;;;;17.65;90.36;96860.66;5022976;28;20242;-86
2022/05/20 02:51:37;;;;;;;2.30;2.10;;;;;;;17.69;90.05;96867.25;5036841;28;20272;-85
2022/05/20 02:54:05;;;;;;;3.70;2.00;;;;;;;17.68;89.03;96857.41;5019427;28;20291;-86
2022/05/20 02:56:32;;;;;;;3.73;2.33;;;;;;;17.75;86.56;96860.72;5037734;28;20203;-85
2022/05/20 03:04:30;;;;;;;2.63;2.23;;;;;;;17.74;93.35;96859.06;5016591;28;20214;-86
2022/05/20 03:06:57;;;;;;;3.67;2.37;;;;;;;17.62;95.58;96861.16;5018584;28;20203;-85
2022/05/20 03:09:26;;;;;;;3.93;2.00;;;;;;;17.57;95.91;96861.09;5021055;28;20234;-86
2022/05/20 03:11:54;;;;;;;3.30;2.17;;;;;;;17.52;96.94;96861.06;5027650;28;20214;-86
2022/05/20 03:14:24;;;;;;;3.97;2.50;;;;;;;17.44;98.28;96864.28;5023758;28;20222;-85
2022/05/20 03:16:51;;;;;;;6.27;2.40;;;;;;;17.38;100.00;96856.03;5021300;28;20461;-85
2022/05/20 03:19:20;;;;;;;4.03;2.40;;;;;;;17.19;97.22;96862.16;5041999;28;20210;-85
2022/05/20 03:21:47;;;;;;;4.67;2.60;;;;;;;17.17;92.23;96843.31;5044172;28;20207;-85
2022/05/20 03:24:14;;;;;;;2.47;2.10;;;;;;;17.22;92.62;96840.63;5042527;28;20326;-86
2022/05/20 03:26:41;;;;;;;3.80;2.20;;;;;;;17.34;90.89;96843.19;5020811;28;20207;-85
2022/05/20 03:29:09;;;;;;;6.70;2.30;;;;;;;17.42;90.17;96834.53;5020728;28;20235;-85
2022/05/20 03:31:39;;;;;;;3.13;2.20;;;;;;;17.47;89.98;96831.81;5020330;28;20211;-84
2022/05/20 03:34:08;;;;;;;4.40;3.03;;;;;;;17.54;90.09;96839.78;5017610;28;20272;-85
2022/05/20 03:36:37;;;;;;;8.20;2.40;;;;;;;17.59;89.41;96846.09;5043891;28;20278;-85
2022/05/20 03:39:05;;;;;;;2.73;2.30;;;;;;;17.63;87.62;96846.41;5020776;28;20284;-85
2022/05/20 03:41:32;;;;;;;3.27;2.97;;;;;;;17.70;86.75;96827.88;5016711;28;20263;-85
2022/05/20 03:44:00;;;;;;;9.67;2.70;;;;;;;17.78;87.32;96843.78;5016411;28;20230;-85
2022/05/20 03:46:27;;;;;;;6.90;2.30;;;;;;;17.84;84.53;96848.22;5027696;28;20580;-84
2022/05/20 03:48:55;;;;;;;4.30;2.67;;;;;;;17.84;88.36;96845.47;5029024;28;20223;-85
2022/05/20 03:51:22;;;;;;;3.33;2.50;;;;;;;17.73;92.34;96843.75;5021886;28;20214;-85
2022/05/20 03:53:49;;;;;;;4.27;2.50;;;;;;;17.52;91.45;96840.06;5022212;28;20330;-85
2022/05/20 03:56:17;;;;;;;4.50;2.97;;;;;;;17.52;88.74;96836.50;5040525;28;20203;-85
2022/05/20 03:58:44;;;;;;;2.40;2.17;;;;;;;17.58;89.57;96839.00;5037132;28;20366;-85
2022/05/20 04:03:59;;;;;;;4.07;2.50;;;;;;;17.31;95.84;96830.88;5042371;28;20234;-84
2022/05/20 04:06:26;;;;;;;3.97;3.07;;;;;;;17.24;96.81;96838.47;5023709;28;20209;-85
2022/05/20 04:08:54;;;;;;;10.03;2.90;;;;;;;17.06;98.45;96840.75;5039515;28;20302;-85
2022/05/20 04:11:22;;;;;;;4.30;2.53;;;;;;;16.99;99.65;96835.53;5023891;28;20207;-85
2022/05/20 04:13:49;;;;;;;7.20;3.00;;;;;;;16.98;100.00;96839.31;5024506;28;20202;-85
2022/05/20 04:16:17;;;;;;;7.13;3.03;;;;;;;16.95;100.00;96848.00;5019026;28;20245;-85
2022/05/20 04:18:44;;;;;;;4.97;2.50;;;;;;;16.81;100.00;96850.34;5045310;28;20222;-85
2022/05/20 04:21:15;;;;;;;5.60;2.90;;;;;;;16.74;100.00;96840.72;5027225;28;20203;-86
2022/05/20 04:23:43;;;;;;;2.37;2.10;;;;;;;16.81;99.65;96844.06;5032830;28;20211;-85
2022/05/20 04:26:13;;;;;;;7.33;3.00;;;;;;;16.91;100.00;96849.63;5036036;28;20206;-85
2022/05/20 04:28:40;;;;;;;10.00;3.20;;;;;;;16.96;100.00;96853.22;5031277;28;20211;-85
2022/05/20 04:31:09;;;;;;;3.90;2.70;;;;;;;16.95;100.00;96850.75;5021033;28;20351;-84
2022/05/20 04:33:37;;;;;;;4.10;2.80;;;;;;;16.94;100.00;96835.47;5035599;28;20328;-84
2022/05/20 04:36:07;;;;;;;5.77;2.80;;;;;;;16.99;100.00;96835.53;5026636;28;20217;-86
2022/05/20 04:38:36;;;;;;;5.40;2.77;;;;;;;17.00;100.00;96834.44;5021278;28;20219;-85
2022/05/20 04:49:18;;;;;;;4.20;2.60;;;;;;;17.53;95.77;96847.13;5041836;28;20252;-85
2022/05/20 04:51:45;;;;;;;5.20;2.67;;;;;;;17.59;97.70;96839.81;5024059;28;20238;-85
2022/05/20 04:57:24;;;;;;;5.37;2.70;;;;;;;17.52;100.00;96834.59;4968097;28;20215;-85
2022/05/20 04:59:52;;;;;;;4.27;2.70;;;;;;;17.48;100.00;96840.81;4964157;28;20232;-85
2022/05/20 05:02:20;;;;;;;3.77;2.60;;;;;;;17.42;100.00;96839.97;4985021;28;20217;-85
2022/05/20 05:04:48;;;;;;;3.17;2.13;;;;;;;17.48;94.43;96833.47;5023391;28;20210;-85
2022/05/20 05:07:15;;;;;;;5.30;2.40;;;;;;;17.72;89.68;96834.75;5021818;28;20223;-86
2022/05/20 05:09:45;;;;;;;3.03;2.23;;;;;;;17.96;88.52;96829.69;5021283;28;20253;-85
2022/05/20 05:12:14;;;;;;;3.30;2.20;;;;;;;18.10;91.67;96838.25;5038567;28;20226;-84
2022/05/20 05:14:44;;;;;;;4.83;2.30;;;;;;;18.08;93.04;96833.03;5022782;28;20329;-85
2022/05/20 05:17:13;;;;;;;4.10;2.60;;;;;;;18.06;94.68;96831.66;5023960;28;20322;-85
2022/05/20 05:19:41;;;;;;;3.00;2.40;;;;;;;17.84;94.51;96831.81;5023457;28;20294;-85
2022/05/20 05:22:09;;;;;;;3.63;2.30;;;;;;;17.83;95.56;96837.53;5039955;28;20233;-84
2022/05/20 05:24:38;;;;;;;6.20;3.20;;;;;;;17.84;97.50;96836.47;5019777;28;20215;-81
2022/05/20 05:27:08;;;;;;;5.30;2.77;;;;;;;17.72;97.30;96832.00;5026183;28;20203;-81
2022/05/20 05:29:38;;;;;;;3.83;2.57;;;;;;;17.69;99.61;96829.00;5024951;28;20227;-81
2022/05/20 05:32:07;;;;;;;5.93;2.90;;;;;;;17.71;99.70;96832.28;5039885;28;20241;-81
2022/05/20 05:34:35;;;;;;;7.30;3.20;;;;;;;17.72;100.00;96829.28;5038400;28;20207;-81
2022/05/20 05:37:03;;;;;;;3.97;2.80;;;;;;;17.73;100.00;96813.72;5027025;28;20224;-81
2022/05/20 05:39:32;;;;;;;5.90;2.80;;;;;;;17.84;100.00;96822.81;5025094;28;20206;-81
2022/05/20 05:42:01;;;;;;;4.47;2.83;;;;;;;17.91;100.00;96815.19;5025509;28;20254;-81
2022/05/20 05:44:29;;;;;;;3.47;2.80;;;;;;;17.96;100.00;96818.75;5024757;28;20459;-81
2022/05/20 05:46:56;;;;;;;3.87;2.83;;;;;;;17.96;100.00;96817.94;5018996;28;20301;-81
2022/05/20 05:49:24;;;;;;;6.53;3.30;;;;;;;17.97;99.63;96811.38;5018439;28;20238;-81
2022/05/20 05:51:53;;;;;;;6.20;3.17;;;;;;;18.03;98.62;96821.28;5042585;28;20253;-81
2022/05/20 05:54:20;;;;;;;6.43;3.07;;;;;;;18.04;98.30;96831.09;5014777;28;20218;-81
2022/05/20 05:56:47;;;;;;;5.13;3.10;;;;;;;17.97;100.00;96819.56;5029254;28;20241;-81
2022/05/20 05:59:14;;;;;;;6.83;3.20;;;;;;;18.00;100.00;96819.88;5027382;28;20220;-81
2022/05/20 06:01:42;;;;;;;6.73;3.00;;;;;;;18.01;100.00;96824.25;5024046;28;20229;-81
2022/05/20 06:04:09;;;;;;;8.30;4.37;;;;;;;18.00;100.00;96824.53;5024526;28;20209;-80
2022/05/20 06:06:36;;;;;;;4.67;3.40;;;;;;;17.94;100.00;96820.94;5019779;28;20226;-81
2022/05/20 06:09:04;;;;;;;6.63;4.07;;;;;;;17.83;100.00;96816.50;5023113;28;20214;-81
2022/05/20 06:11:31;;;;;;;5.87;3.80;;;;;;;17.79;100.00;96823.56;5024828;28;20233;-81
2022/05/20 06:13:58;;;;;;;5.67;3.50;;;;;;;17.75;100.00;96817.84;5024419;28;20221;-81
2022/05/20 06:16:25;;;;;;;4.47;3.47;;;;;;;17.75;100.00;96811.56;5023203;28;20227;-80
2022/05/20 06:18:53;;;;;;;4.80;3.30;;;;;;;17.72;100.00;96812.06;5038028;28;20217;-81
2022/05/20 06:21:20;;;;;;;9.73;3.60;;;;;;;17.71;100.00;96802.22;5020781;28;20199;-80
2022/05/20 06:23:47;;;;;;;4.80;3.20;;;;;;;17.86;100.00;96810.53;5017312;28;20265;-81
2022/05/20 06:26:14;;;;;;;6.93;3.83;;;;;;;17.93;100.00;96815.75;5023605;28;20218;-81
2022/05/20 06:28:41;;;;;;;6.43;3.90;;;;;;;17.89;100.00;96811.88;5023946;28;20215;-81
2022/05/20 06:31:08;;;;;;;7.27;3.47;;;;;;;17.90;100.00;96806.16;5018508;28;20276;-80
2022/05/20 06:33:36;;;;;;;5.10;3.63;;;;;;;17.97;100.00;96798.53;5021043;28;20209;-81
2022/05/20 06:41:35;;;;;;;8.83;4.13;;;;;;;18.03;100.00;96802.16;5025515;28;20249;-80
2022/05/20 06:44:02;;;;;;;5.50;3.77;;;;;;;18.01;100.00;96799.66;5015733;28;20199;-81
2022/05/20 06:46:30;;;;;;;6.80;3.30;;;;;;;17.97;100.00;96801.28;5021400;28;20221;-80
2022/05/20 06:48:58;;;;;;;6.47;3.97;;;;;;;17.91;100.00;96801.53;5023594;28;20239;-80
2022/05/20 06:51:28;;;;;;;7.50;4.30;;;;;;;17.93;100.00;96802.09;5025482;28;20221;-81
2022/05/20 06:53:58;;;;;;;10.33;4.10;;;;;;;17.86;100.00;96802.34;5036780;28;20214;-80
2022/05/20 06:56:28;;;;;;;7.03;3.53;;;;;;;17.87;100.00;96803.13;5022267;28;20210;-81
2022/05/20 06:58:56;;;;;;;11.37;4.73;;;;;;;17.83;100.00;96810.22;5025498;28;20210;-81
2022/05/20 07:01:23;;;;;;;8.57;4.03;;;;;;;17.90;100.00;96803.44;5024192;28;20198;-81
2022/05/20 07:03:51;;;;;;;7.80;4.30;;;;;;;17.88;100.00;96805.59;5044004;28;20219;-81
2022/05/20 07:06:18;;;;;;;4.90;3.83;;;;;;;17.90;100.00;96797.97;5042270;28;20197;-84
2022/05/20 07:08:49;;;;;;;7.43;4.20;;;;;;;17.96;100.00;96796.91;5035753;28;20206;-84
2022/05/20 07:11:18;;;;;;;5.27;3.60;;;;;;;18.27;100.00;96797.88;5028110;28;20276;-85
2022/05/20 07:13:45;;;;;;;5.30;3.77;;;;;;;18.72;100.00;96794.44;5032511;28;20206;-84
2022/05/20 07:16:12;;;;;;;6.50;3.40;;;;;;;19.02;100.00;96799.13;5037826;28;20230;-84
2022/05/20 07:18:39;;;;;;;7.53;3.70;;;;;;;19.38;100.00;96789.00;5043228;28;20214;-84
2022/05/20 07:21:09;;;;;;;3.80;2.97;;;;;;;19.49;100.00;96793.38;5025424;28;20210;-84
2022/05/20 07:23:37;;;;;;;5.47;3.40;;;;;;;19.78;100.00;96788.13;5025600;28;20226;-85
2022/05/20 07:26:06;;;;;;;4.45;2.65;;;;;;;20.16;97.71;96794.84;5012922;28;20207;-84
2022/05/20 07:28:34;;;;;;;3.75;2.55;;;;;;;20.48;94.70;96789.00;5046485;28;20207;-85
2022/05/20 07:31:01;;;;;;;4.35;2.42;;;;;;;20.47;92.96;96787.34;5021648;28;20322;-84
2022/05/20 07:33:30;;;;;;;3.72;2.75;;;;;;;20.66;91.82;96782.84;5039435;28;20440;-85
2022/05/20 07:35:57;;;;;;;5.05;3.13;;;;;;;21.13;90.03;96790.47;5021220;28;20214;-85
2022/05/20 07:38:24;;;;;;;8.88;2.58;;;;;;;21.29;86.41;96795.88;5014345;28;20202;-85
2022/05/20 07:40:55;;;;;;;5.60;3.03;;;;;;;21.48;83.54;96792.13;5038256;28;20209;-84
2022/05/20 07:43:24;;;;;;;8.70;3.10;;;;;;;21.60;84.37;96796.44;5017788;28;20215;-85
2022/05/20 07:45:52;;;;;;;6.85;3.17;;;;;;;22.02;82.24;96796.56;5040252;28;20215;-85
2022/05/20 07:48:20;;;;;;;8.05;3.25;;;;;;;22.38;78.65;96787.84;5030813;28;20234;-85
2022/05/20 07:50:53;;;;;;;5.60;3.35;;;;;;;22.77;73.63;96802.22;5035114;28;20233;-85
2022/05/20 07:53:23;;;;;;;6.53;3.90;;;;;;;23.01;72.83;96793.88;5021062;28;20207;-85
2022/05/20 07:55:54;;;;;;;7.07;3.05;;;;;;;23.33;72.00;96796.66;5037639;28;20212;-85
2022/05/20 07:58:27;;;;;;;5.72;3.15;;;;;;;23.53;67.66;96784.50;5022812;28;20218;-85
2022/05/20 08:00:58;;;;;;;5.70;3.00;;;;;;;23.70;65.54;96794.97;5027153;28;20210;-85
2022/05/20 08:06:14;;;;;;;5.68;3.15;;;;;;;24.04;62.91;96780.81;5027391;28;20218;-85
2022/05/20 08:08:41;;;;;;;3.75;2.97;;;;;;;24.22;63.05;96781.88;5027293;28;20204;-85
2022/05/20 08:11:08;;;;;;;6.40;2.88;;;;;;;24.23;64.28;96767.78;5039227;28;20235;-84
2022/05/20 08:13:39;;;;;;;5.63;2.95;;;;;;;24.29;64.60;96779.50;5041096;28;20329;-85
2022/05/20 08:16:07;;;;;;;5.38;2.90;;;;;;;24.42;62.82;96786.94;5019103;28;20269;-85
2022/05/20 08:18:34;;;;;;;7.50;3.00;;;;;;;24.43;63.12;96775.59;5038690;28;20203;-86
2022/05/20 08:21:02;;;;;;;7.82;3.00;;;;;;;24.50;62.44;96762.19;5024790;28;20210;-84
2022/05/20 08:23:29;;;;;;;5.72;2.80;;;;;;;24.65;64.62;96766.59;5030031;28;20246;-86
2022/05/20 08:25:56;;;;;;;3.50;3.13;;;;;;;24.86;62.88;96767.75;5022332;28;20250;-86
2022/05/20 08:28:23;;;;;;;6.35;3.00;;;;;;;24.96;60.42;96757.63;5027086;28;20203;-85
2022/05/20 08:30:52;;;;;;;5.28;3.10;;;;;;;25.02;59.34;96761.88;5024902;28;20230;-84
2022/05/20 08:33:19;;;;;;;5.68;2.92;;;;;;;24.82;60.94;96764.00;5024610;28;20222;-85
2022/05/20 08:35:46;;;;;;;5.70;3.08;;;;;;;24.93;59.26;96747.19;5040622;28;20211;-84
2022/05/20 08:38:13;;;;;;;6.30;2.90;;;;;;;25.04;61.24;96745.81;5011309;28;20204;-85
2022/05/20 08:40:45;;;;;;;5.38;2.83;;;;;;;25.09;57.24;96751.25;5021317;28;20269;-85
2022/05/20 08:43:14;;;;;;;4.82;2.45;;;;;;;25.23;56.31;96743.69;5035048;28;20226;-86
2022/05/20 08:45:41;;;;;;;4.43;2.70;;;;;;;25.43;57.45;96740.44;5026218;28;20210;-85
2022/05/20 08:48:12;;;;;;;5.28;2.63;;;;;;;25.51;56.41;96731.38;5023583;28;20227;-84
2022/05/20 08:50:42;;;;;;;5.05;3.40;;;;;;;25.63;55.31;96739.91;5042821;28;20242;-84
2022/05/20 08:53:18;;;;;;;5.32;3.97;;;;;;;25.71;55.60;96734.72;5033663;28;20210;-85
2022/05/20 08:55:46;;;;;;;7.80;3.30;;;;;;;25.76;55.87;96731.84;5041310;28;20293;-85
2022/05/20 08:58:19;;;;;;;3.83;3.03;;;;;;;25.90;55.95;96732.56;5034107;28;20289;-86
2022/05/20 09:00:46;;;;;;;5.95;3.20;;;;;;;25.97;53.83;96717.13;5041702;28;20211;-86
2022/05/20 09:03:16;;;;;;;3.90;2.95;;;;;;;26.04;54.95;96713.88;5020534;28;20310;-85
2022/05/20 09:05:46;;;;;;;5.32;3.00;;;;;;;26.19;53.38;96718.16;5039217;28;20230;-86
2022/05/20 09:08:24;;;;;;;5.60;3.10;;;;;;;26.24;54.30;96716.06;5037280;28;20219;-85
2022/05/20 09:10:54;;;;;;;5.18;2.90;;;;;;;26.24;51.87;96716.06;5024328;28;20226;-85
2022/05/20 09:15:43;;;;;;;6.10;3.20;;;;;;;26.29;53.88;96713.16;5017816;28;20225;-85
2022/05/20 09:16:14;;;;;;;6.40;3.20;;;;;;;26.33;52.24;96707.81;5042909;28;20221;-85
2022/05/20 09:18:45;;;;;;;4.72;3.03;;;;;;;26.49;52.20;96699.84;5022376;28;20204;-86
2022/05/20 09:21:26;;;;;;;4.45;3.33;;;;;;;26.67;53.35;96701.50;5035608;28;20215;-86
2022/05/20 09:23:55;;;;;;;5.82;3.05;;;;;;;26.83;52.48;96697.09;5017481;28;20462;-85
2022/05/20 09:26:25;;;;;;;5.90;3.08;;;;;;;26.91;52.14;96701.84;5014345;28;20301;-85
2022/05/20 09:29:00;;;;;;;7.63;2.80;;;;;;;26.85;53.54;96699.56;5040931;28;20234;-84
2022/05/20 09:31:33;;;;;;;5.80;3.10;;;;;;;26.80;54.61;96700.50;5029120;28;20223;-85
2022/05/20 09:34:13;;;;;;;3.60;2.78;;;;;;;26.69;54.70;96693.69;5022513;28;20348;-85
2022/05/20 09:36:48;;;;;;;6.10;2.50;;;;;;;26.71;52.24;96702.50;5036606;28;20301;-86
2022/05/20 09:39:19;;;;;;;5.53;2.70;;;;;;;26.65;52.53;96698.22;5026794;28;20214;-85
2022/05/20 09:41:49;;;;;;;4.90;2.95;;;;;;;26.81;51.87;96687.47;5029737;28;20305;-84
2022/05/20 09:44:19;;;;;;;4.80;2.83;;;;;;;26.99;50.97;96689.13;5020655;28;20305;-85
2022/05/20 09:46:52;;;;;;;7.10;2.90;;;;;;;27.32;50.41;96689.41;5038103;28;20207;-86
2022/05/20 09:49:30;;;;;;;3.92;2.95;;;;;;;27.39;51.61;96681.41;5022762;28;20266;-85
2022/05/20 09:52:01;;;;;;;4.97;3.53;;;;;;;27.44;49.99;96672.91;5027689;28;20226;-86
2022/05/20 09:54:32;;;;;;;5.68;4.00;;;;;;;27.46;51.66;96668.66;5022814;28;20204;-86
2022/05/20 09:57:06;;;;;;;4.22;3.15;;;;;;;27.56;50.54;96673.06;5038527;28;20210;-85
2022/05/20 09:59:42;;;;;;;9.45;3.88;;;;;;;27.67;51.28;96673.50;5033505;28;20234;-86
2022/05/20 10:02:20;;;;;;;3.90;3.50;;;;;;;27.58;48.85;96664.41;5023460;28;20288;-85
2022/05/20 10:04:57;;;;;;;4.25;2.95;;;;;;;27.54;48.33;96664.28;5026544;28;20238;-86
2022/05/20 10:07:37;;;;;;;3.80;2.70;;;;;;;27.67;46.88;96662.41;5016062;28;20241;-86
2022/05/20 10:10:10;;;;;;;4.45;2.75;;;;;;;27.67;46.00;96663.22;5023605;28;20279;-85
2022/05/20 10:12:40;;;;;;;5.43;2.60;;;;;;;27.80;46.58;96664.97;5043996;28;20226;-85
2022/05/20 10:15:16;;;;;;;3.83;3.03;;;;;;;27.78;46.32;96660.91;5023602;28;20208;-85
2022/05/20 10:17:55;;;;;;;4.20;2.67;;;;;;;27.80;44.57;96659.44;5038100;28;20199;-86
2022/05/20 10:20:31;;;;;;;3.90;2.97;;;;;;;27.95;44.97;96674.69;5041211;28;20209;-85
2022/05/20 10:23:04;;;;;;;4.00;2.42;;;;;;;28.08;44.76;96665.31;5022999;28;20211;-86
2022/05/20 10:25:38;;;;;;;5.32;2.78;;;;;;;28.01;44.33;96658.66;5023574;28;20206;-85
2022/05/20 10:33:51;;;;;;;4.80;2.80;;;;;;;28.15;46.12;96662.03;5023774;28;20199;-85
2022/05/20 10:36:26;;;;;;;4.35;3.00;;;;;;;28.15;45.54;96662.03;5027777;28;20209;-86
2022/05/20 10:39:00;;;;;;;4.80;3.15;;;;;;;28.30;45.76;96655.09;5024999;28;20211;-86
2022/05/20 10:41:47;;;;;;;3.53;3.15;;;;;;;28.35;46.22;96652.94;5023868;28;20198;-86
2022/05/20 10:50:13;;;;;;;4.03;2.70;;;;;;;28.08;44.86;96651.44;4989766;28;20238;-89
2022/05/20 10:53:11;;;;;;;3.78;3.03;;;;;;;27.67;47.93;96652.13;5040798;28;20260;-89
2022/05/20 10:55:58;;;;;;;4.25;3.20;;;;;;;27.44;48.91;96650.72;5020307;28;20234;-90
2022/05/20 10:58:45;;;;;;;5.47;3.03;;;;;;;27.44;49.21;96653.50;5039569;28;20264;-89
2022/05/20 11:01:20;;;;;;;3.33;3.03;;;;;;;27.62;49.95;96649.56;5045976;28;20210;-89
2022/05/20 11:04:27;;;;;;;4.22;3.00;;;;;;;28.06;47.44;96644.59;5045780;28;20216;-90
2022/05/20 11:07:27;;;;;;;6.57;3.05;;;;;;;28.36;49.11;96650.97;5024303;28;20219;-89
2022/05/20 11:10:07;;;;;;;5.95;3.20;;;;;;;28.63;48.11;96639.31;5034845;28;20279;-89
2022/05/20 11:12:46;;;;;;;4.88;3.10;;;;;;;28.67;47.39;96633.91;5029394;28;20322;-91
2022/05/20 11:15:34;;;;;;;3.72;3.03;;;;;;;28.88;47.63;96626.38;5016642;28;20203;-89
2022/05/20 11:18:20;;;;;;;5.15;3.30;;;;;;;29.04;46.92;96629.34;5033232;28;20206;-90
2022/05/20 11:21:20;;;;;;;5.15;3.60;;;;;;;29.13;47.75;96619.75;5020878;28;20211;-90
2022/05/20 11:24:14;;;;;;;4.32;3.50;;;;;;;29.14;48.58;96621.38;5037247;28;20225;-91
2022/05/20 11:27:15;;;;;;;6.10;3.80;;;;;;;28.93;48.70;96603.94;5024848;28;20213;-89
2022/05/20 11:30:03;;;;;;;4.30;3.25;;;;;;;29.00;47.70;96603.41;5021211;28;20219;-90
2022/05/20 11:32:45;;;;;;;5.13;3.63;;;;;;;28.87;48.88;96600.56;5041213;28;20327;-89
2022/05/20 11:35:25;;;;;;;6.07;3.63;;;;;;;29.14;49.36;96595.53;5040560;28;20218;-89
2022/05/20 11:38:17;;;;;;;5.15;3.60;;;;;;;29.53;46.95;96594.13;5041563;28;20195;-89
2022/05/20 11:41:04;;;;;;;4.70;3.58;;;;;;;29.71;44.57;96593.56;5015884;28;20199;-89
2022/05/20 11:44:00;;;;;;;3.60;3.30;;;;;;;29.93;44.63;96586.72;5030383;28;20234;-90
2022/05/20 11:46:52;;;;;;;7.28;3.47;;;;;;;29.85;44.75;96582.09;4988386;28;20210;-90
2022/05/20 11:49:42;;;;;;;4.72;3.50;;;;;;;29.76;43.56;96569.44;5047277;28;20230;-88
2022/05/20 11:52:36;;;;;;;5.03;3.28;;;;;;;29.88;43.89;96561.06;5027333;28;20276;-90
2022/05/20 11:55:11;;;;;;;6.13;3.55;;;;;;;29.83;43.99;96570.50;5037917;28;20295;-90
2022/05/20 11:57:44;;;;;;;4.90;3.40;;;;;;;29.94;43.13;96552.16;5042613;28;20211;-89
2022/05/20 12:00:16;;;;;;;4.45;3.60;;;;;;;29.95;43.42;96550.19;5026272;28;20218;-89
2022/05/20 12:02:48;;;;;;;7.95;5.22;;;;;;;30.25;43.63;96543.19;5041769;28;20221;-89
2022/05/20 12:05:19;;;;;;;5.75;3.20;;;;;;;30.50;41.52;96535.56;5052376;28;20223;-89
2022/05/20 12:07:47;;;;;;;4.68;3.20;;;;;;;30.40;40.63;96530.47;5045859;28;20218;-92
2022/05/20 12:10:40;;;;;;;6.35;3.20;;;;;;;30.51;40.32;96517.69;5026083;28;20234;-90
2022/05/20 12:13:20;;;;;;;6.15;3.50;;;;;;;30.89;39.60;96517.16;5036040;28;20225;-90
2022/05/20 12:16:09;;;;;;;5.50;3.08;;;;;;;31.09;38.16;96504.97;5039892;28;20223;-91
2022/05/20 12:24:32;;;;;;;6.15;3.10;;;;;;;31.52;38.41;96470.59;5018559;28;20350;-90
2022/05/20 12:27:00;;;;;;;4.15;3.30;;;;;;;31.51;38.46;96476.53;5020230;28;20206;-90
2022/05/20 12:30:06;;;;;;;3.38;3.08;;;;;;;31.22;37.30;96463.84;5022398;28;20212;-90
2022/05/20 12:32:50;;;;;;;5.47;3.33;;;;;;;31.35;38.44;96457.00;5019823;28;20211;-90
2022/05/20 12:35:25;;;;;;;6.68;3.10;;;;;;;31.55;35.11;96444.75;5044036;28;20214;-89